Decoded Metar for ZBAA (BEIJING in CHINA) (IATA:PEK) | Meteo·Mobile Aviation Weather
aviador You're here:

ZBAA Decoded Metar

BEIJING in CHINA
Report Time2018-08-18 15:30:00
UTC Time2018-08-18 15:45:25
Flight Rules vfr VFR
Wind360° at 4 kt
W.Decomp.*RWY 36: 4.0 kt HW 0.4 kt RCW
RWY 01: 4.0 kt HW 0.3 kt LCW
Visibility9999 m
Phenomena:N/A
Clouds:N/A
Expected CloudBase > 800 ft AGL from Temp-Dew spread
CeilingNone
Temp23°C (ISA +8)
Dew Point21°C (89% RH)
QNH1010 hPa
Density Alt1,480 ft
Elevation98 ft
Report Wrong Elevation
Raw Report
METAR ZBAA 181530Z 36002MPS CAVOK 23/21 Q1010 NOSIG=

Extra information for ZBAA:More info

Metar Taf Metar & Taf Last 4 Metars F.Rules Stats Wind Profile Meteogram Temp Stats Airport Information Weather charts Add Link Nearby VenuesMetar ALERT Operation Metar Decoded Social comments